sensor_id;sensor_type;location;lat;lon;timestamp;pressure;altitude;pressure_sealevel;temperature;humidity
48872;BME280;36154;51.674;7.824;2024-03-17T00:01:15;101594.00;;;20.45;48.57
48872;BME280;36154;51.674;7.824;2024-03-17T00:03:41;101594.00;;;20.45;47.92
48872;BME280;36154;51.674;7.824;2024-03-17T00:06:07;101598.34;;;20.43;47.92
48872;BME280;36154;51.674;7.824;2024-03-17T00:08:33;101594.00;;;20.45;47.99
48872;BME280;36154;51.674;7.824;2024-03-17T00:10:58;101595.75;;;20.44;48.00
48872;BME280;36154;51.674;7.824;2024-03-17T00:13:24;101587.13;;;20.44;48.01
48872;BME280;36154;51.674;7.824;2024-03-17T00:15:50;101585.41;;;20.43;48.12
48872;BME280;36154;51.674;7.824;2024-03-17T00:18:18;101588.84;;;20.43;48.00
48872;BME280;36154;51.674;7.824;2024-03-17T00:20:43;101582.81;;;20.43;48.00
48872;BME280;36154;51.674;7.824;2024-03-17T00:23:09;101587.16;;;20.42;48.09
48872;BME280;36154;51.674;7.824;2024-03-17T00:25:37;101588.03;;;20.40;48.15
48872;BME280;36154;51.674;7.824;2024-03-17T00:28:03;101588.91;;;20.42;48.10
48872;BME280;36154;51.674;7.824;2024-03-17T00:30:28;101586.31;;;20.42;48.13
48872;BME280;36154;51.674;7.824;2024-03-17T00:32:53;101583.72;;;20.42;48.09
48872;BME280;36154;51.674;7.824;2024-03-17T00:35:19;101586.31;;;20.42;48.08
48872;BME280;36154;51.674;7.824;2024-03-17T00:37:47;101584.59;;;20.41;48.18
48872;BME280;36154;51.674;7.824;2024-03-17T00:40:13;101573.38;;;20.40;48.11
48872;BME280;36154;51.674;7.824;2024-03-17T00:42:39;101583.75;;;20.40;48.09
48872;BME280;36154;51.674;7.824;2024-03-17T00:45:04;101566.47;;;20.41;48.07
48872;BME280;36154;51.674;7.824;2024-03-17T00:47:31;101566.47;;;20.39;48.01
48872;BME280;36154;51.674;7.824;2024-03-17T00:49:56;101562.16;;;20.40;48.16
48872;BME280;36154;51.674;7.824;2024-03-17T00:52:22;101562.16;;;20.40;47.89
48872;BME280;36154;51.674;7.824;2024-03-17T00:54:47;101566.47;;;20.39;47.99
48872;BME280;36154;51.674;7.824;2024-03-17T00:57:13;101560.47;;;20.39;48.18
48872;BME280;36154;51.674;7.824;2024-03-17T00:59:38;101564.75;;;20.38;48.12
48872;BME280;36154;51.674;7.824;2024-03-17T01:02:04;101558.72;;;20.39;48.15
48872;BME280;36154;51.674;7.824;2024-03-17T01:04:29;101553.56;;;20.38;48.16
48872;BME280;36154;51.674;7.824;2024-03-17T01:06:55;101550.09;;;20.39;48.17
48872;BME280;36154;51.674;7.824;2024-03-17T01:09:20;101555.28;;;20.39;48.16
48872;BME280;36154;51.674;7.824;2024-03-17T01:11:46;101557.88;;;20.39;48.20
48872;BME280;36154;51.674;7.824;2024-03-17T01:14:11;101552.69;;;20.39;48.27
48872;BME280;36154;51.674;7.824;2024-03-17T01:16:36;101557.00;;;20.38;48.26
48872;BME280;36154;51.674;7.824;2024-03-17T01:19:01;101542.34;;;20.37;48.33
48872;BME280;36154;51.674;7.824;2024-03-17T01:21:27;101543.22;;;20.38;48.23
48872;BME280;36154;51.674;7.824;2024-03-17T01:23:52;101540.63;;;20.38;48.23
48872;BME280;36154;51.674;7.824;2024-03-17T01:26:18;101538.94;;;20.37;48.14
48872;BME280;36154;51.674;7.824;2024-03-17T01:28:43;101538.03;;;20.38;48.27
48872;BME280;36154;51.674;7.824;2024-03-17T01:31:08;101527.69;;;20.38;48.16
48872;BME280;36154;51.674;7.824;2024-03-17T01:33:34;101520.81;;;20.37;48.37
48872;BME280;36154;51.674;7.824;2024-03-17T01:36:00;101529.41;;;20.39;48.23
48872;BME280;36154;51.674;7.824;2024-03-17T01:38:25;101527.69;;;20.38;48.25
48872;BME280;36154;51.674;7.824;2024-03-17T01:40:50;101525.97;;;20.37;48.28
48872;BME280;36154;51.674;7.824;2024-03-17T01:43:15;101526.84;;;20.37;48.26
48872;BME280;36154;51.674;7.824;2024-03-17T01:45:41;101520.81;;;20.37;48.22
48872;BME280;36154;51.674;7.824;2024-03-17T01:48:13;101512.19;;;20.35;48.29
48872;BME280;36154;51.674;7.824;2024-03-17T01:50:41;101519.09;;;20.36;48.29
48872;BME280;36154;51.674;7.824;2024-03-17T01:53:08;101512.16;;;20.36;48.28
48872;BME280;36154;51.674;7.824;2024-03-17T01:55:38;101508.72;;;20.36;48.37
48872;BME280;36154;51.674;7.824;2024-03-17T01:58:04;101506.13;;;20.36;48.30
48872;BME280;36154;51.674;7.824;2024-03-17T02:00:33;101508.72;;;20.36;48.28
48872;BME280;36154;51.674;7.824;2024-03-17T02:02:59;101511.31;;;20.36;48.32
48872;BME280;36154;51.674;7.824;2024-03-17T02:05:24;101515.63;;;20.37;48.24
48872;BME280;36154;51.674;7.824;2024-03-17T02:07:50;101512.19;;;20.35;48.27
48872;BME280;36154;51.674;7.824;2024-03-17T02:10:15;101511.31;;;20.36;48.25
48872;BME280;36154;51.674;7.824;2024-03-17T02:12:40;101512.19;;;20.35;48.35
48872;BME280;36154;51.674;7.824;2024-03-17T02:15:06;101512.19;;;20.35;48.34
48872;BME280;36154;51.674;7.824;2024-03-17T02:17:32;101512.19;;;20.35;47.99
48872;BME280;36154;51.674;7.824;2024-03-17T02:19:58;101504.41;;;20.35;48.42
48872;BME280;36154;51.674;7.824;2024-03-17T02:22:24;101506.16;;;20.34;48.33
48872;BME280;36154;51.674;7.824;2024-03-17T02:24:49;101512.19;;;20.35;48.27
48872;BME280;36154;51.674;7.824;2024-03-17T02:27:14;101507.00;;;20.35;48.36
48872;BME280;36154;51.674;7.824;2024-03-17T02:29:40;101505.31;;;20.34;48.22
48872;BME280;36154;51.674;7.824;2024-03-17T02:32:08;101500.13;;;20.34;48.37
48872;BME280;36154;51.674;7.824;2024-03-17T02:34:34;101505.31;;;20.34;47.92
48872;BME280;36154;51.674;7.824;2024-03-17T02:37:01;101505.31;;;20.34;48.27
48872;BME280;36154;51.674;7.824;2024-03-17T02:39:26;101504.44;;;20.33;48.34
48872;BME280;36154;51.674;7.824;2024-03-17T02:42:02;101500.97;;;20.34;48.38
48872;BME280;36154;51.674;7.824;2024-03-17T02:44:29;101503.59;;;20.33;48.28
48872;BME280;36154;51.674;7.824;2024-03-17T02:46:55;101496.69;;;20.33;48.36
48872;BME280;36154;51.674;7.824;2024-03-17T02:49:20;101498.41;;;20.33;48.17
48872;BME280;36154;51.674;7.824;2024-03-17T02:51:47;101497.56;;;20.34;48.33
48872;BME280;36154;51.674;7.824;2024-03-17T02:54:12;101498.41;;;20.33;48.37
48872;BME280;36154;51.674;7.824;2024-03-17T02:56:37;101493.25;;;20.33;48.25
48872;BME280;36154;51.674;7.824;2024-03-17T02:59:03;101494.09;;;20.31;48.46
48872;BME280;36154;51.674;7.824;2024-03-17T03:01:28;101493.25;;;20.33;48.42
48872;BME280;36154;51.674;7.824;2024-03-17T03:03:53;101499.28;;;20.31;48.35
48872;BME280;36154;51.674;7.824;2024-03-17T03:06:18;101497.56;;;20.32;48.37
48872;BME280;36154;51.674;7.824;2024-03-17T03:08:44;101490.66;;;20.31;48.32
48872;BME280;36154;51.674;7.824;2024-03-17T03:11:13;101500.16;;;20.32;48.39
48872;BME280;36154;51.674;7.824;2024-03-17T03:13:39;101495.84;;;20.31;48.45
48872;BME280;36154;51.674;7.824;2024-03-17T03:16:10;101494.16;;;20.30;48.42
48872;BME280;36154;51.674;7.824;2024-03-17T03:18:36;101495.84;;;20.31;48.33
48872;BME280;36154;51.674;7.824;2024-03-17T03:21:02;101495.00;;;20.30;48.28
48872;BME280;36154;51.674;7.824;2024-03-17T03:23:28;101501.03;;;20.31;48.43
48872;BME280;36154;51.674;7.824;2024-03-17T03:25:56;101495.00;;;20.30;48.33
48872;BME280;36154;51.674;7.824;2024-03-17T03:28:23;101493.28;;;20.29;48.32
48872;BME280;36154;51.674;7.824;2024-03-17T03:30:48;101495.00;;;20.30;48.36
48872;BME280;36154;51.674;7.824;2024-03-17T03:33:13;101496.75;;;20.30;48.39
48872;BME280;36154;51.674;7.824;2024-03-17T03:35:38;101495.00;;;20.30;48.40
48872;BME280;36154;51.674;7.824;2024-03-17T03:38:04;101493.28;;;20.29;48.32
48872;BME280;36154;51.674;7.824;2024-03-17T03:40:30;101494.16;;;20.30;48.34
48872;BME280;36154;51.674;7.824;2024-03-17T03:42:55;101490.69;;;20.29;48.39
48872;BME280;36154;51.674;7.824;2024-03-17T03:45:21;101495.00;;;20.30;48.47
48872;BME280;36154;51.674;7.824;2024-03-17T03:47:46;101488.09;;;20.29;48.66
48872;BME280;36154;51.674;7.824;2024-03-17T03:50:17;101487.25;;;20.29;48.38
48872;BME280;36154;51.674;7.824;2024-03-17T03:52:42;101482.94;;;20.29;48.50
48872;BME280;36154;51.674;7.824;2024-03-17T03:55:09;101488.09;;;20.29;48.33
48872;BME280;36154;51.674;7.824;2024-03-17T03:57:40;101483.81;;;20.28;48.26
48872;BME280;36154;51.674;7.824;2024-03-17T04:00:05;101490.69;;;20.29;48.22
48872;BME280;36154;51.674;7.824;2024-03-17T04:02:40;101486.41;;;20.28;48.41
48872;BME280;36154;51.674;7.824;2024-03-17T04:05:06;101485.50;;;20.29;48.29
48872;BME280;36154;51.674;7.824;2024-03-17T04:07:32;101493.28;;;20.29;48.48
48872;BME280;36154;51.674;7.824;2024-03-17T04:09:57;101491.59;;;20.28;48.41
48872;BME280;36154;51.674;7.824;2024-03-17T04:12:24;101481.22;;;20.28;48.32
48872;BME280;36154;51.674;7.824;2024-03-17T04:14:49;101490.72;;;20.28;48.49
48872;BME280;36154;51.674;7.824;2024-03-17T04:17:21;101485.53;;;20.28;48.39
48872;BME280;36154;51.674;7.824;2024-03-17T04:19:47;101480.34;;;20.28;48.31
48872;BME280;36154;51.674;7.824;2024-03-17T04:22:14;101481.22;;;20.28;48.38
48872;BME280;36154;51.674;7.824;2024-03-17T04:24:39;101481.22;;;20.28;48.30
48872;BME280;36154;51.674;7.824;2024-03-17T04:27:05;101476.06;;;20.27;48.36
48872;BME280;36154;51.674;7.824;2024-03-17T04:29:30;101479.50;;;20.27;48.30
48872;BME280;36154;51.674;7.824;2024-03-17T04:31:55;101472.63;;;20.26;48.38
48872;BME280;36154;51.674;7.824;2024-03-17T04:34:20;101482.09;;;20.27;48.43
48872;BME280;36154;51.674;7.824;2024-03-17T04:36:46;101489.03;;;20.27;48.47
48872;BME280;36154;51.674;7.824;2024-03-17T04:39:12;101483.84;;;20.27;48.35
48872;BME280;36154;51.674;7.824;2024-03-17T04:41:37;101488.13;;;20.26;48.43
48872;BME280;36154;51.674;7.824;2024-03-17T04:44:04;101486.44;;;20.27;48.32
48872;BME280;36154;51.674;7.824;2024-03-17T04:46:32;101485.56;;;20.26;48.56
48872;BME280;36154;51.674;7.824;2024-03-17T04:48:57;101493.31;;;20.26;48.24
48872;BME280;36154;51.674;7.824;2024-03-17T04:51:22;101498.50;;;20.26;48.46
48872;BME280;36154;51.674;7.824;2024-03-17T04:53:47;101496.81;;;20.25;48.38
48872;BME280;36154;51.674;7.824;2024-03-17T04:56:13;101493.31;;;20.26;48.35
48872;BME280;36154;51.674;7.824;2024-03-17T04:58:38;101486.44;;;20.25;48.45
48872;BME280;36154;51.674;7.824;2024-03-17T05:01:09;101487.28;;;20.26;48.47
48872;BME280;36154;51.674;7.824;2024-03-17T05:03:35;101485.56;;;20.25;48.38
48872;BME280;36154;51.674;7.824;2024-03-17T05:06:01;101486.44;;;20.25;48.34
48872;BME280;36154;51.674;7.824;2024-03-17T05:08:28;101476.97;;;20.24;48.35
48872;BME280;36154;51.674;7.824;2024-03-17T05:13:22;101476.09;;;20.25;48.36
48872;BME280;36154;51.674;7.824;2024-03-17T05:15:48;101478.69;;;20.24;48.28
48872;BME280;36154;51.674;7.824;2024-03-17T05:18:13;101481.28;;;20.25;48.40
48872;BME280;36154;51.674;7.824;2024-03-17T05:20:38;101475.22;;;20.25;48.32
48872;BME280;36154;51.674;7.824;2024-03-17T05:23:03;101479.56;;;20.24;48.46
48872;BME280;36154;51.674;7.824;2024-03-17T05:25:29;101469.19;;;20.24;48.35
48872;BME280;36154;51.674;7.824;2024-03-17T05:27:55;101468.34;;;20.24;48.43
48872;BME280;36154;51.674;7.824;2024-03-17T05:30:20;101470.09;;;20.23;48.39
48872;BME280;36154;51.674;7.824;2024-03-17T05:32:45;101468.34;;;20.24;48.36
48872;BME280;36154;51.674;7.824;2024-03-17T05:35:10;101461.44;;;20.24;48.80
48872;BME280;36154;51.674;7.824;2024-03-17T05:37:36;101451.97;;;20.23;48.33
48872;BME280;36154;51.674;7.824;2024-03-17T05:40:01;101451.97;;;20.23;48.43
48872;BME280;36154;51.674;7.824;2024-03-17T05:42:27;101451.97;;;20.23;48.53
48872;BME280;36154;51.674;7.824;2024-03-17T05:44:53;101454.56;;;20.23;48.38
48872;BME280;36154;51.674;7.824;2024-03-17T05:47:18;101452.84;;;20.22;48.45
48872;BME280;36154;51.674;7.824;2024-03-17T05:49:44;101465.78;;;20.22;48.28
48872;BME280;36154;51.674;7.824;2024-03-17T05:52:09;101470.09;;;20.23;48.64
48872;BME280;36154;51.674;7.824;2024-03-17T05:54:35;101470.97;;;20.22;48.30
48872;BME280;36154;51.674;7.824;2024-03-17T05:57:00;101472.72;;;20.22;48.38
48872;BME280;36154;51.674;7.824;2024-03-17T05:59:29;101476.13;;;20.22;48.41
48872;BME280;36154;51.674;7.824;2024-03-17T06:01:54;101464.06;;;20.21;48.17
48872;BME280;36154;51.674;7.824;2024-03-17T06:04:19;101475.28;;;20.22;48.67
48872;BME280;36154;51.674;7.824;2024-03-17T06:06:45;101470.97;;;20.22;48.32
48872;BME280;36154;51.674;7.824;2024-03-17T06:09:10;101461.47;;;20.21;48.30
48872;BME280;36154;51.674;7.824;2024-03-17T06:11:36;101464.94;;;20.22;48.31
48872;BME280;36154;51.674;7.824;2024-03-17T06:14:01;101466.66;;;20.21;48.42
48872;BME280;36154;51.674;7.824;2024-03-17T06:16:29;101462.34;;;20.23;48.28
48872;BME280;36154;51.674;7.824;2024-03-17T06:18:56;101462.38;;;20.20;48.39
48872;BME280;36154;51.674;7.824;2024-03-17T06:21:21;101464.06;;;20.21;48.30
48872;BME280;36154;51.674;7.824;2024-03-17T06:23:46;101464.06;;;20.21;48.33
48872;BME280;36154;51.674;7.824;2024-03-17T06:26:12;101463.22;;;20.21;48.33
48872;BME280;36154;51.674;7.824;2024-03-17T06:28:37;101464.94;;;20.22;48.24
48872;BME280;36154;51.674;7.824;2024-03-17T06:31:03;101454.59;;;20.20;48.31
48872;BME280;36154;51.674;7.824;2024-03-17T06:33:32;101460.63;;;20.21;48.32
48872;BME280;36154;51.674;7.824;2024-03-17T06:35:57;101458.88;;;20.21;48.21
48872;BME280;36154;51.674;7.824;2024-03-17T06:38:23;101457.19;;;20.20;48.13
48872;BME280;36154;51.674;7.824;2024-03-17T06:40:49;101460.63;;;20.21;48.62
48872;BME280;36154;51.674;7.824;2024-03-17T06:43:15;101461.47;;;20.21;48.26
48872;BME280;36154;51.674;7.824;2024-03-17T06:45:41;101457.19;;;20.20;48.16
48872;BME280;36154;51.674;7.824;2024-03-17T06:48:06;101461.47;;;20.21;48.18
48872;BME280;36154;51.674;7.824;2024-03-17T06:50:32;101458.03;;;20.21;48.29
48872;BME280;36154;51.674;7.824;2024-03-17T06:52:57;101446.84;;;20.20;48.22
48872;BME280;36154;51.674;7.824;2024-03-17T06:55:22;101448.53;;;20.21;48.20
48872;BME280;36154;51.674;7.824;2024-03-17T06:57:48;101451.13;;;20.21;48.21
48872;BME280;36154;51.674;7.824;2024-03-17T07:00:14;101444.25;;;20.22;48.09
48872;BME280;36154;51.674;7.824;2024-03-17T07:02:43;101453.72;;;20.21;48.22
48872;BME280;36154;51.674;7.824;2024-03-17T07:05:13;101446.84;;;20.20;48.14
48872;BME280;36154;51.674;7.824;2024-03-17T07:07:41;101440.78;;;20.21;48.28
48872;BME280;36154;51.674;7.824;2024-03-17T07:10:07;101449.41;;;20.23;48.21
48872;BME280;36154;51.674;7.824;2024-03-17T07:12:33;101448.53;;;20.21;48.26
48872;BME280;36154;51.674;7.824;2024-03-17T07:14:59;101444.25;;;20.22;48.29
48872;BME280;36154;51.674;7.824;2024-03-17T07:17:24;101445.94;;;20.21;48.22
48872;BME280;36154;51.674;7.824;2024-03-17T07:19:49;101449.41;;;20.22;48.19
48872;BME280;36154;51.674;7.824;2024-03-17T07:22:14;101451.97;;;20.23;48.10
48872;BME280;36154;51.674;7.824;2024-03-17T07:24:40;101453.72;;;20.21;48.20
48872;BME280;36154;51.674;7.824;2024-03-17T07:27:05;101447.69;;;20.22;48.17
48872;BME280;36154;51.674;7.824;2024-03-17T07:29:34;101445.09;;;20.22;48.04
48872;BME280;36154;51.674;7.824;2024-03-17T07:31:59;101444.25;;;20.22;48.19
48872;BME280;36154;51.674;7.824;2024-03-17T07:34:24;101450.25;;;20.22;48.07
48872;BME280;36154;51.674;7.824;2024-03-17T07:36:49;101446.81;;;20.23;48.13
48872;BME280;36154;51.674;7.824;2024-03-17T07:39:15;101441.63;;;20.23;48.11
48872;BME280;36154;51.674;7.824;2024-03-17T07:41:41;101437.31;;;20.24;48.06
48872;BME280;36154;51.674;7.824;2024-03-17T07:44:06;101439.03;;;20.23;48.18
48872;BME280;36154;51.674;7.824;2024-03-17T07:46:32;101443.31;;;20.24;48.11
48872;BME280;36154;51.674;7.824;2024-03-17T07:48:57;101437.31;;;20.24;47.93
48872;BME280;36154;51.674;7.824;2024-03-17T07:51:23;101433.88;;;20.23;48.13
48872;BME280;36154;51.674;7.824;2024-03-17T07:53:48;101438.16;;;20.24;48.04
48872;BME280;36154;51.674;7.824;2024-03-17T07:56:14;101434.69;;;20.25;48.10
48872;BME280;36154;51.674;7.824;2024-03-17T07:58:43;101433.81;;;20.25;48.22
48872;BME280;36154;51.674;7.824;2024-03-17T08:01:11;101437.28;;;20.25;47.97
48872;BME280;36154;51.674;7.824;2024-03-17T08:03:38;101429.53;;;20.25;47.98
48872;BME280;36154;51.674;7.824;2024-03-17T08:06:06;101433.78;;;20.26;48.16
48872;BME280;36154;51.674;7.824;2024-03-17T08:08:32;101436.38;;;20.26;47.93
48872;BME280;36154;51.674;7.824;2024-03-17T08:10:58;101438.97;;;20.26;47.96
48872;BME280;36154;51.674;7.824;2024-03-17T08:13:24;101440.72;;;20.26;47.97
48872;BME280;36154;51.674;7.824;2024-03-17T08:16:00;101443.31;;;20.26;47.88
48872;BME280;36154;51.674;7.824;2024-03-17T08:18:26;101439.00;;;20.25;48.09
48872;BME280;36154;51.674;7.824;2024-03-17T08:20:52;101431.22;;;20.26;48.08
48872;BME280;36154;51.674;7.824;2024-03-17T08:23:19;101438.97;;;20.26;48.06
48872;BME280;36154;51.674;7.824;2024-03-17T08:25:54;101433.78;;;20.26;48.01
48872;BME280;36154;51.674;7.824;2024-03-17T08:28:20;101436.38;;;20.26;48.14
48872;BME280;36154;51.674;7.824;2024-03-17T08:30:59;101436.38;;;20.26;48.14
48872;BME280;36154;51.674;7.824;2024-03-17T08:33:25;101442.44;;;20.27;48.00
48872;BME280;36154;51.674;7.824;2024-03-17T08:36:02;101436.38;;;20.26;47.74
48872;BME280;36154;51.674;7.824;2024-03-17T08:38:28;101436.38;;;20.26;47.93
48872;BME280;36154;51.674;7.824;2024-03-17T08:41:01;101445.88;;;20.27;48.02
48872;BME280;36154;51.674;7.824;2024-03-17T08:43:26;101442.44;;;20.27;47.92
48872;BME280;36154;51.674;7.824;2024-03-17T08:48:23;101441.53;;;20.28;47.92
48872;BME280;36154;51.674;7.824;2024-03-17T08:50:55;101448.47;;;20.27;48.03
48872;BME280;36154;51.674;7.824;2024-03-17T08:53:21;101446.72;;;20.28;47.99
48872;BME280;36154;51.674;7.824;2024-03-17T08:55:47;101451.03;;;20.27;47.97
48872;BME280;36154;51.674;7.824;2024-03-17T08:58:12;101453.63;;;20.27;47.94
48872;BME280;36154;51.674;7.824;2024-03-17T09:00:38;101451.03;;;20.27;48.03
48872;BME280;36154;51.674;7.824;2024-03-17T09:03:04;101449.31;;;20.28;48.01
48872;BME280;36154;51.674;7.824;2024-03-17T09:05:29;101455.34;;;20.28;47.79
48872;BME280;36154;51.674;7.824;2024-03-17T09:07:54;101454.47;;;20.28;48.11
48872;BME280;36154;51.674;7.824;2024-03-17T09:10:20;101445.84;;;20.29;48.07
48872;BME280;36154;51.674;7.824;2024-03-17T09:12:46;101444.09;;;20.29;47.95
48872;BME280;36154;51.674;7.824;2024-03-17T09:15:12;101448.41;;;20.30;47.98
48872;BME280;36154;51.674;7.824;2024-03-17T09:17:38;101451.88;;;20.29;47.95
48872;BME280;36154;51.674;7.824;2024-03-17T09:20:04;101457.94;;;20.30;48.03
48872;BME280;36154;51.674;7.824;2024-03-17T09:22:30;101456.19;;;20.30;48.00
48872;BME280;36154;51.674;7.824;2024-03-17T09:24:55;101458.78;;;20.30;47.99
48872;BME280;36154;51.674;7.824;2024-03-17T09:27:20;101455.28;;;20.31;48.38
48872;BME280;36154;51.674;7.824;2024-03-17T09:29:47;101454.44;;;20.31;48.03
48872;BME280;36154;51.674;7.824;2024-03-17T09:32:13;101457.84;;;20.33;48.15
48872;BME280;36154;51.674;7.824;2024-03-17T09:34:51;101451.84;;;20.33;48.19
48872;BME280;36154;51.674;7.824;2024-03-17T09:37:17;101455.25;;;20.33;48.09
48872;BME280;36154;51.674;7.824;2024-03-17T09:39:42;101445.78;;;20.34;48.20
48872;BME280;36154;51.674;7.824;2024-03-17T09:42:17;101437.13;;;20.35;48.31
48872;BME280;36154;51.674;7.824;2024-03-17T09:44:45;101434.53;;;20.35;48.20
48872;BME280;36154;51.674;7.824;2024-03-17T09:47:16;101431.09;;;20.36;48.10
48872;BME280;36154;51.674;7.824;2024-03-17T09:49:43;101426.75;;;20.36;48.09
48872;BME280;36154;51.674;7.824;2024-03-17T09:52:18;101422.44;;;20.37;48.12
48872;BME280;36154;51.674;7.824;2024-03-17T09:54:44;101419.81;;;20.38;47.95
48872;BME280;36154;51.674;7.824;2024-03-17T09:57:16;101412.03;;;20.40;47.89
48872;BME280;36154;51.674;7.824;2024-03-17T09:59:41;101414.59;;;20.41;47.86
48872;BME280;36154;51.674;7.824;2024-03-17T10:02:15;101418.94;;;20.41;48.04
48872;BME280;36154;51.674;7.824;2024-03-17T10:04:41;101404.25;;;20.41;47.94
48872;BME280;36154;51.674;7.824;2024-03-17T10:07:06;101397.34;;;20.42;47.62
48872;BME280;36154;51.674;7.824;2024-03-17T10:09:32;101399.03;;;20.43;47.84
48872;BME280;36154;51.674;7.824;2024-03-17T10:11:57;101408.53;;;20.44;47.85
48872;BME280;36154;51.674;7.824;2024-03-17T10:14:23;101407.63;;;20.45;48.06
48872;BME280;36154;51.674;7.824;2024-03-17T10:16:48;101399.03;;;20.44;48.00
48872;BME280;36154;51.674;7.824;2024-03-17T10:19:24;101406.75;;;20.46;48.07
48872;BME280;36154;51.674;7.824;2024-03-17T10:21:58;101407.59;;;20.46;48.07
48872;BME280;36154;51.674;7.824;2024-03-17T10:24:25;101414.53;;;20.47;48.12
48872;BME280;36154;51.674;7.824;2024-03-17T10:26:54;101423.97;;;20.50;48.05
48872;BME280;36154;51.674;7.824;2024-03-17T10:29:33;101418.78;;;20.50;47.93
48872;BME280;36154;51.674;7.824;2024-03-17T10:32:12;101408.50;;;20.47;47.76
48872;BME280;36154;51.674;7.824;2024-03-17T10:34:41;101422.25;;;20.52;47.95
48872;BME280;36154;51.674;7.824;2024-03-17T10:37:19;101411.88;;;20.52;47.99
48872;BME280;36154;51.674;7.824;2024-03-17T10:39:46;101412.72;;;20.53;47.93
48872;BME280;36154;51.674;7.824;2024-03-17T10:42:13;101407.53;;;20.54;47.89
48872;BME280;36154;51.674;7.824;2024-03-17T10:44:42;101415.28;;;20.54;47.97
48872;BME280;36154;51.674;7.824;2024-03-17T10:47:20;101410.13;;;20.54;47.88
48872;BME280;36154;51.674;7.824;2024-03-17T10:49:46;101405.75;;;20.56;47.84
48872;BME280;36154;51.674;7.824;2024-03-17T10:52:16;101406.66;;;20.55;47.96
48872;BME280;36154;51.674;7.824;2024-03-17T10:54:50;101408.34;;;20.56;48.00
48872;BME280;36154;51.674;7.824;2024-03-17T10:57:45;101408.34;;;20.56;48.00
48872;BME280;36154;51.674;7.824;2024-03-17T11:00:13;101410.06;;;20.57;48.35
48872;BME280;36154;51.674;7.824;2024-03-17T11:02:43;101409.19;;;20.57;48.11
48872;BME280;36154;51.674;7.824;2024-03-17T11:07:42;101402.31;;;20.57;48.00
48872;BME280;36154;51.674;7.824;2024-03-17T11:10:16;101406.59;;;20.58;48.20
48872;BME280;36154;51.674;7.824;2024-03-17T11:12:50;101399.69;;;20.59;48.07
48872;BME280;36154;51.674;7.824;2024-03-17T11:17:47;101406.53;;;20.61;48.04
48872;BME280;36154;51.674;7.824;2024-03-17T11:20:21;101413.44;;;20.62;48.04
48872;BME280;36154;51.674;7.824;2024-03-17T11:22:54;101409.94;;;20.63;47.94
48872;BME280;36154;51.674;7.824;2024-03-17T11:27:57;101410.03;;;20.60;48.05
48872;BME280;36154;51.674;7.824;2024-03-17T11:41:44;101401.34;;;20.61;48.02
48872;BME280;36154;51.674;7.824;2024-03-17T11:47:02;101396.16;;;20.63;48.12
48872;BME280;36154;51.674;7.824;2024-03-17T11:52:24;101386.69;;;20.62;48.13
48872;BME280;36154;51.674;7.824;2024-03-17T11:54:49;101390.13;;;20.62;48.11
48872;BME280;36154;51.674;7.824;2024-03-17T11:57:21;101391.81;;;20.63;48.24
48872;BME280;36154;51.674;7.824;2024-03-17T11:59:50;101384.97;;;20.62;48.21
48872;BME280;36154;51.674;7.824;2024-03-17T12:02:39;101384.06;;;20.63;48.14
48872;BME280;36154;51.674;7.824;2024-03-17T12:05:05;101384.97;;;20.62;48.19
48872;BME280;36154;51.674;7.824;2024-03-17T12:07:30;101389.22;;;20.63;48.02
48872;BME280;36154;51.674;7.824;2024-03-17T12:09:56;101383.22;;;20.63;48.10
48872;BME280;36154;51.674;7.824;2024-03-17T12:12:24;101382.38;;;20.62;48.07
48872;BME280;36154;51.674;7.824;2024-03-17T12:14:51;101384.06;;;20.63;47.92
48872;BME280;36154;51.674;7.824;2024-03-17T12:17:23;101373.69;;;20.63;48.13
48872;BME280;36154;51.674;7.824;2024-03-17T12:19:49;101376.34;;;20.62;48.13
48872;BME280;36154;51.674;7.824;2024-03-17T12:22:20;101377.19;;;20.62;48.03
48872;BME280;36154;51.674;7.824;2024-03-17T12:24:56;101378.88;;;20.63;48.17
48872;BME280;36154;51.674;7.824;2024-03-17T12:27:25;101363.34;;;20.63;48.12
48872;BME280;36154;51.674;7.824;2024-03-17T12:29:51;101370.25;;;20.64;48.08
48872;BME280;36154;51.674;7.824;2024-03-17T12:32:22;101363.34;;;20.63;47.96
48872;BME280;36154;51.674;7.824;2024-03-17T12:34:53;101359.88;;;20.64;48.07
48872;BME280;36154;51.674;7.824;2024-03-17T12:37:20;101346.94;;;20.64;48.09
48872;BME280;36154;51.674;7.824;2024-03-17T12:39:46;101354.72;;;20.64;48.07
48872;BME280;36154;51.674;7.824;2024-03-17T12:42:12;101350.38;;;20.65;48.27
48872;BME280;36154;51.674;7.824;2024-03-17T12:44:48;101340.00;;;20.65;48.25
48872;BME280;36154;51.674;7.824;2024-03-17T12:47:18;101334.00;;;20.64;48.24
48872;BME280;36154;51.674;7.824;2024-03-17T12:49:49;101332.25;;;20.65;48.37
48872;BME280;36154;51.674;7.824;2024-03-17T12:52:51;101326.22;;;20.64;48.52
48872;BME280;36154;51.674;7.824;2024-03-17T12:55:18;101320.19;;;20.65;48.49
48872;BME280;36154;51.674;7.824;2024-03-17T13:00:46;101314.13;;;20.65;48.47
48872;BME280;36154;51.674;7.824;2024-03-17T13:03:24;101308.09;;;20.64;48.75
48872;BME280;36154;51.674;7.824;2024-03-17T13:05:49;101309.81;;;20.65;48.73
48872;BME280;36154;51.674;7.824;2024-03-17T13:08:15;101309.81;;;20.65;48.82
48872;BME280;36154;51.674;7.824;2024-03-17T13:10:41;101302.06;;;20.65;48.59
48872;BME280;36154;51.674;7.824;2024-03-17T13:13:08;101301.16;;;20.66;48.73
48872;BME280;36154;51.674;7.824;2024-03-17T13:15:34;101292.50;;;20.67;48.79
48872;BME280;36154;51.674;7.824;2024-03-17T13:18:04;101291.66;;;20.67;48.97
48872;BME280;36154;51.674;7.824;2024-03-17T13:20:31;101293.38;;;20.66;49.10
48872;BME280;36154;51.674;7.824;2024-03-17T13:22:57;101292.50;;;20.67;49.04